sensor_id;sensor_type;location;lat;lon;timestamp;P1;durP1;ratioP1;P2;durP2;ratioP2
36215;SDS011;22257;52.232;21.084;2022-07-06T00:02:03;9.60;;;8.63;;
36215;SDS011;22257;52.232;21.084;2022-07-06T00:04:29;10.43;;;8.30;;
36215;SDS011;22257;52.232;21.084;2022-07-06T00:06:55;10.98;;;8.25;;
36215;SDS011;22257;52.232;21.084;2022-07-06T00:09:21;9.53;;;7.80;;
36215;SDS011;22257;52.232;21.084;2022-07-06T00:11:47;9.63;;;7.70;;
36215;SDS011;22257;52.232;21.084;2022-07-06T00:14:13;12.05;;;8.53;;
36215;SDS011;22257;52.232;21.084;2022-07-06T00:16:39;10.18;;;7.58;;
36215;SDS011;22257;52.232;21.084;2022-07-06T00:19:06;11.43;;;7.55;;
36215;SDS011;22257;52.232;21.084;2022-07-06T00:21:32;8.60;;;7.50;;
36215;SDS011;22257;52.232;21.084;2022-07-06T00:23:58;14.30;;;6.92;;
36215;SDS011;22257;52.232;21.084;2022-07-06T00:26:24;8.10;;;6.92;;
36215;SDS011;22257;52.232;21.084;2022-07-06T00:28:50;8.18;;;6.72;;
36215;SDS011;22257;52.232;21.084;2022-07-06T00:31:16;9.43;;;7.00;;
36215;SDS011;22257;52.232;21.084;2022-07-06T00:33:43;8.85;;;7.25;;
36215;SDS011;22257;52.232;21.084;2022-07-06T00:36:09;10.55;;;7.50;;
36215;SDS011;22257;52.232;21.084;2022-07-06T00:38:35;9.20;;;7.78;;
36215;SDS011;22257;52.232;21.084;2022-07-06T00:41:01;11.10;;;8.53;;
36215;SDS011;22257;52.232;21.084;2022-07-06T00:43:27;10.00;;;7.80;;
36215;SDS011;22257;52.232;21.084;2022-07-06T00:45:53;12.30;;;8.20;;
36215;SDS011;22257;52.232;21.084;2022-07-06T00:48:21;9.90;;;8.60;;
36215;SDS011;22257;52.232;21.084;2022-07-06T00:50:47;10.50;;;8.80;;
36215;SDS011;22257;52.232;21.084;2022-07-06T00:53:13;14.05;;;8.75;;
36215;SDS011;22257;52.232;21.084;2022-07-06T00:55:40;15.48;;;9.00;;
36215;SDS011;22257;52.232;21.084;2022-07-06T00:58:06;12.33;;;8.88;;
36215;SDS011;22257;52.232;21.084;2022-07-06T01:00:34;10.00;;;8.25;;
36215;SDS011;22257;52.232;21.084;2022-07-06T01:03:01;12.63;;;7.92;;
36215;SDS011;22257;52.232;21.084;2022-07-06T01:05:27;10.45;;;8.35;;
36215;SDS011;22257;52.232;21.084;2022-07-06T01:07:55;10.98;;;7.45;;
36215;SDS011;22257;52.232;21.084;2022-07-06T01:10:22;9.48;;;6.50;;
36215;SDS011;22257;52.232;21.084;2022-07-06T01:12:48;8.83;;;7.17;;
36215;SDS011;22257;52.232;21.084;2022-07-06T01:15:16;7.72;;;6.90;;
36215;SDS011;22257;52.232;21.084;2022-07-06T01:17:45;9.10;;;7.40;;
36215;SDS011;22257;52.232;21.084;2022-07-06T01:22:45;8.60;;;6.72;;
36215;SDS011;22257;52.232;21.084;2022-07-06T01:25:12;10.45;;;6.90;;
36215;SDS011;22257;52.232;21.084;2022-07-06T01:27:39;9.40;;;6.30;;
36215;SDS011;22257;52.232;21.084;2022-07-06T01:30:12;8.78;;;6.08;;
36215;SDS011;22257;52.232;21.084;2022-07-06T01:32:38;9.03;;;6.17;;
36215;SDS011;22257;52.232;21.084;2022-07-06T01:35:07;6.67;;;5.47;;
36215;SDS011;22257;52.232;21.084;2022-07-06T01:37:35;12.98;;;6.08;;
36215;SDS011;22257;52.232;21.084;2022-07-06T01:40:09;8.45;;;5.92;;
36215;SDS011;22257;52.232;21.084;2022-07-06T01:42:34;7.15;;;6.42;;
36215;SDS011;22257;52.232;21.084;2022-07-06T01:45:01;8.80;;;6.15;;
36215;SDS011;22257;52.232;21.084;2022-07-06T01:47:28;10.25;;;6.53;;
36215;SDS011;22257;52.232;21.084;2022-07-06T01:49:57;10.03;;;6.37;;
36215;SDS011;22257;52.232;21.084;2022-07-06T01:52:26;7.78;;;6.33;;
36215;SDS011;22257;52.232;21.084;2022-07-06T01:54:54;7.78;;;6.28;;
36215;SDS011;22257;52.232;21.084;2022-07-06T01:57:23;7.25;;;6.17;;
36215;SDS011;22257;52.232;21.084;2022-07-06T01:59:49;11.28;;;5.78;;
36215;SDS011;22257;52.232;21.084;2022-07-06T02:02:16;9.20;;;5.55;;
36215;SDS011;22257;52.232;21.084;2022-07-06T02:04:43;8.90;;;6.10;;
36215;SDS011;22257;52.232;21.084;2022-07-06T02:07:09;10.72;;;5.83;;
36215;SDS011;22257;52.232;21.084;2022-07-06T02:09:35;10.72;;;6.87;;
36215;SDS011;22257;52.232;21.084;2022-07-06T02:12:01;7.97;;;5.90;;
36215;SDS011;22257;52.232;21.084;2022-07-06T02:14:27;11.80;;;6.30;;
36215;SDS011;22257;52.232;21.084;2022-07-06T02:16:53;10.45;;;6.30;;
36215;SDS011;22257;52.232;21.084;2022-07-06T02:19:19;9.55;;;6.65;;
36215;SDS011;22257;52.232;21.084;2022-07-06T02:21:46;10.32;;;6.47;;
36215;SDS011;22257;52.232;21.084;2022-07-06T02:24:12;9.93;;;5.92;;
36215;SDS011;22257;52.232;21.084;2022-07-06T02:26:38;8.20;;;5.97;;
36215;SDS011;22257;52.232;21.084;2022-07-06T02:29:04;8.40;;;5.62;;
36215;SDS011;22257;52.232;21.084;2022-07-06T02:31:30;6.58;;;5.87;;
36215;SDS011;22257;52.232;21.084;2022-07-06T02:33:56;6.47;;;5.30;;
36215;SDS011;22257;52.232;21.084;2022-07-06T02:36:22;9.15;;;5.72;;
36215;SDS011;22257;52.232;21.084;2022-07-06T02:38:48;6.12;;;5.47;;
36215;SDS011;22257;52.232;21.084;2022-07-06T02:41:14;10.98;;;5.00;;
36215;SDS011;22257;52.232;21.084;2022-07-06T02:43:40;8.85;;;5.42;;
36215;SDS011;22257;52.232;21.084;2022-07-06T02:46:06;7.62;;;5.33;;
36215;SDS011;22257;52.232;21.084;2022-07-06T02:48:32;7.85;;;5.47;;
36215;SDS011;22257;52.232;21.084;2022-07-06T02:50:58;8.38;;;5.95;;
36215;SDS011;22257;52.232;21.084;2022-07-06T02:53:24;10.85;;;6.40;;
36215;SDS011;22257;52.232;21.084;2022-07-06T02:55:50;9.98;;;6.67;;
36215;SDS011;22257;52.232;21.084;2022-07-06T02:58:16;11.73;;;6.60;;
36215;SDS011;22257;52.232;21.084;2022-07-06T03:00:42;9.68;;;6.80;;
36215;SDS011;22257;52.232;21.084;2022-07-06T03:03:08;13.13;;;7.37;;
36215;SDS011;22257;52.232;21.084;2022-07-06T03:05:35;9.70;;;5.90;;
36215;SDS011;22257;52.232;21.084;2022-07-06T03:08:01;12.05;;;6.42;;
36215;SDS011;22257;52.232;21.084;2022-07-06T03:10:28;13.50;;;6.42;;
36215;SDS011;22257;52.232;21.084;2022-07-06T03:12:54;10.40;;;6.50;;
36215;SDS011;22257;52.232;21.084;2022-07-06T03:15:21;10.45;;;6.42;;
36215;SDS011;22257;52.232;21.084;2022-07-06T03:17:47;11.95;;;6.78;;
36215;SDS011;22257;52.232;21.084;2022-07-06T03:20:13;8.75;;;6.83;;
36215;SDS011;22257;52.232;21.084;2022-07-06T03:22:39;8.00;;;6.45;;
36215;SDS011;22257;52.232;21.084;2022-07-06T03:25:05;14.00;;;6.50;;
36215;SDS011;22257;52.232;21.084;2022-07-06T03:27:32;9.40;;;6.55;;
36215;SDS011;22257;52.232;21.084;2022-07-06T03:29:59;9.63;;;7.12;;
36215;SDS011;22257;52.232;21.084;2022-07-06T03:32:25;13.55;;;7.60;;
36215;SDS011;22257;52.232;21.084;2022-07-06T03:34:52;12.80;;;7.40;;
36215;SDS011;22257;52.232;21.084;2022-07-06T03:37:18;10.53;;;6.58;;
36215;SDS011;22257;52.232;21.084;2022-07-06T03:39:44;7.80;;;5.42;;
36215;SDS011;22257;52.232;21.084;2022-07-06T03:42:10;9.63;;;5.67;;
36215;SDS011;22257;52.232;21.084;2022-07-06T03:44:36;9.70;;;6.12;;
36215;SDS011;22257;52.232;21.084;2022-07-06T03:47:02;9.35;;;5.80;;
36215;SDS011;22257;52.232;21.084;2022-07-06T03:49:28;8.35;;;5.72;;
36215;SDS011;22257;52.232;21.084;2022-07-06T03:51:54;6.10;;;5.25;;
36215;SDS011;22257;52.232;21.084;2022-07-06T03:54:20;7.30;;;4.75;;
36215;SDS011;22257;52.232;21.084;2022-07-06T03:56:47;5.97;;;4.67;;
36215;SDS011;22257;52.232;21.084;2022-07-06T03:59:13;9.30;;;4.70;;
36215;SDS011;22257;52.232;21.084;2022-07-06T04:01:40;6.65;;;4.45;;
36215;SDS011;22257;52.232;21.084;2022-07-06T04:04:06;9.68;;;5.22;;
36215;SDS011;22257;52.232;21.084;2022-07-06T04:06:32;6.95;;;5.40;;
36215;SDS011;22257;52.232;21.084;2022-07-06T04:09:00;7.00;;;4.97;;
36215;SDS011;22257;52.232;21.084;2022-07-06T04:11:26;9.40;;;4.58;;
36215;SDS011;22257;52.232;21.084;2022-07-06T04:13:52;7.78;;;4.67;;
36215;SDS011;22257;52.232;21.084;2022-07-06T04:16:20;6.60;;;4.28;;
36215;SDS011;22257;52.232;21.084;2022-07-06T04:18:46;11.00;;;4.58;;
36215;SDS011;22257;52.232;21.084;2022-07-06T04:21:12;6.97;;;4.20;;
36215;SDS011;22257;52.232;21.084;2022-07-06T04:23:38;4.72;;;4.05;;
36215;SDS011;22257;52.232;21.084;2022-07-06T04:26:04;7.75;;;4.15;;
36215;SDS011;22257;52.232;21.084;2022-07-06T04:28:30;6.45;;;4.00;;
36215;SDS011;22257;52.232;21.084;2022-07-06T04:30:57;7.22;;;4.17;;
36215;SDS011;22257;52.232;21.084;2022-07-06T04:33:23;7.83;;;4.10;;
36215;SDS011;22257;52.232;21.084;2022-07-06T04:35:49;8.90;;;3.87;;
36215;SDS011;22257;52.232;21.084;2022-07-06T04:38:16;7.92;;;4.50;;
36215;SDS011;22257;52.232;21.084;2022-07-06T04:40:42;11.50;;;4.42;;
36215;SDS011;22257;52.232;21.084;2022-07-06T04:43:08;11.45;;;3.72;;
36215;SDS011;22257;52.232;21.084;2022-07-06T04:45:34;8.80;;;4.17;;
36215;SDS011;22257;52.232;21.084;2022-07-06T04:48:00;6.70;;;3.85;;
36215;SDS011;22257;52.232;21.084;2022-07-06T04:50:26;6.67;;;3.72;;
36215;SDS011;22257;52.232;21.084;2022-07-06T04:52:52;8.90;;;4.72;;
36215;SDS011;22257;52.232;21.084;2022-07-06T04:55:18;6.95;;;4.47;;
36215;SDS011;22257;52.232;21.084;2022-07-06T04:57:44;8.63;;;4.05;;
36215;SDS011;22257;52.232;21.084;2022-07-06T05:00:11;6.12;;;4.15;;
36215;SDS011;22257;52.232;21.084;2022-07-06T05:02:38;7.28;;;3.85;;
36215;SDS011;22257;52.232;21.084;2022-07-06T05:05:05;7.20;;;4.12;;
36215;SDS011;22257;52.232;21.084;2022-07-06T05:07:31;6.37;;;3.85;;
36215;SDS011;22257;52.232;21.084;2022-07-06T05:09:59;6.72;;;3.80;;
36215;SDS011;22257;52.232;21.084;2022-07-06T05:12:25;7.15;;;4.22;;
36215;SDS011;22257;52.232;21.084;2022-07-06T05:14:51;8.05;;;4.62;;
36215;SDS011;22257;52.232;21.084;2022-07-06T05:17:17;7.03;;;4.83;;
36215;SDS011;22257;52.232;21.084;2022-07-06T05:19:43;6.03;;;4.50;;
36215;SDS011;22257;52.232;21.084;2022-07-06T05:22:10;13.08;;;4.90;;
36215;SDS011;22257;52.232;21.084;2022-07-06T05:24:35;8.43;;;4.65;;
36215;SDS011;22257;52.232;21.084;2022-07-06T05:27:02;11.08;;;5.22;;
36215;SDS011;22257;52.232;21.084;2022-07-06T05:29:29;9.03;;;4.80;;
36215;SDS011;22257;52.232;21.084;2022-07-06T05:31:55;9.58;;;4.70;;
36215;SDS011;22257;52.232;21.084;2022-07-06T05:34:21;5.62;;;4.35;;
36215;SDS011;22257;52.232;21.084;2022-07-06T05:36:47;12.20;;;5.05;;
36215;SDS011;22257;52.232;21.084;2022-07-06T05:39:13;11.83;;;4.97;;
36215;SDS011;22257;52.232;21.084;2022-07-06T05:41:39;11.50;;;4.95;;
36215;SDS011;22257;52.232;21.084;2022-07-06T05:44:05;9.35;;;5.05;;
36215;SDS011;22257;52.232;21.084;2022-07-06T05:46:31;10.08;;;5.25;;
36215;SDS011;22257;52.232;21.084;2022-07-06T05:48:57;6.25;;;4.47;;
36215;SDS011;22257;52.232;21.084;2022-07-06T05:51:41;6.65;;;4.22;;
36215;SDS011;22257;52.232;21.084;2022-07-06T05:54:07;5.33;;;4.25;;
36215;SDS011;22257;52.232;21.084;2022-07-06T05:56:33;5.85;;;3.33;;
36215;SDS011;22257;52.232;21.084;2022-07-06T05:58:59;7.50;;;3.70;;
36215;SDS011;22257;52.232;21.084;2022-07-06T06:01:26;5.65;;;4.15;;
36215;SDS011;22257;52.232;21.084;2022-07-06T06:03:52;6.35;;;3.65;;
36215;SDS011;22257;52.232;21.084;2022-07-06T06:06:18;6.47;;;3.87;;
36215;SDS011;22257;52.232;21.084;2022-07-06T06:08:45;4.83;;;3.58;;
36215;SDS011;22257;52.232;21.084;2022-07-06T06:11:11;7.45;;;4.05;;
36215;SDS011;22257;52.232;21.084;2022-07-06T06:13:37;8.28;;;4.25;;
36215;SDS011;22257;52.232;21.084;2022-07-06T06:16:03;6.45;;;3.95;;
36215;SDS011;22257;52.232;21.084;2022-07-06T06:18:30;4.72;;;3.70;;
36215;SDS011;22257;52.232;21.084;2022-07-06T06:20:56;5.22;;;3.25;;
36215;SDS011;22257;52.232;21.084;2022-07-06T06:23:22;6.65;;;3.30;;
36215;SDS011;22257;52.232;21.084;2022-07-06T06:25:48;4.55;;;3.20;;
36215;SDS011;22257;52.232;21.084;2022-07-06T06:28:14;4.40;;;3.05;;
36215;SDS011;22257;52.232;21.084;2022-07-06T06:30:40;7.15;;;3.30;;
36215;SDS011;22257;52.232;21.084;2022-07-06T06:33:12;7.90;;;3.62;;
36215;SDS011;22257;52.232;21.084;2022-07-06T06:35:43;8.53;;;3.87;;
36215;SDS011;22257;52.232;21.084;2022-07-06T06:38:13;5.42;;;3.50;;
36215;SDS011;22257;52.232;21.084;2022-07-06T06:40:40;8.50;;;4.22;;
36215;SDS011;22257;52.232;21.084;2022-07-06T06:43:06;6.50;;;4.00;;
36215;SDS011;22257;52.232;21.084;2022-07-06T06:45:33;8.48;;;3.80;;
36215;SDS011;22257;52.232;21.084;2022-07-06T06:48:00;7.87;;;4.05;;
36215;SDS011;22257;52.232;21.084;2022-07-06T06:50:27;7.15;;;3.72;;
36215;SDS011;22257;52.232;21.084;2022-07-06T06:52:53;8.78;;;4.53;;
36215;SDS011;22257;52.232;21.084;2022-07-06T06:55:20;12.93;;;5.22;;
36215;SDS011;22257;52.232;21.084;2022-07-06T06:57:46;12.60;;;4.58;;
36215;SDS011;22257;52.232;21.084;2022-07-06T07:00:13;9.10;;;4.62;;
36215;SDS011;22257;52.232;21.084;2022-07-06T07:02:39;8.25;;;4.85;;
36215;SDS011;22257;52.232;21.084;2022-07-06T07:05:06;9.95;;;6.03;;
36215;SDS011;22257;52.232;21.084;2022-07-06T07:07:33;8.98;;;5.12;;
36215;SDS011;22257;52.232;21.084;2022-07-06T07:09:59;10.38;;;5.15;;
36215;SDS011;22257;52.232;21.084;2022-07-06T07:12:25;10.28;;;5.72;;
36215;SDS011;22257;52.232;21.084;2022-07-06T07:14:52;8.85;;;5.67;;
36215;SDS011;22257;52.232;21.084;2022-07-06T07:17:18;12.05;;;6.50;;
36215;SDS011;22257;52.232;21.084;2022-07-06T07:19:44;12.37;;;7.00;;
36215;SDS011;22257;52.232;21.084;2022-07-06T07:22:10;11.78;;;6.80;;
36215;SDS011;22257;52.232;21.084;2022-07-06T07:24:36;13.28;;;6.90;;
36215;SDS011;22257;52.232;21.084;2022-07-06T07:27:03;16.85;;;6.53;;
36215;SDS011;22257;52.232;21.084;2022-07-06T07:29:30;13.83;;;7.60;;
36215;SDS011;22257;52.232;21.084;2022-07-06T07:31:56;12.07;;;6.50;;
36215;SDS011;22257;52.232;21.084;2022-07-06T07:34:22;15.98;;;6.95;;
36215;SDS011;22257;52.232;21.084;2022-07-06T07:36:49;11.50;;;5.72;;
36215;SDS011;22257;52.232;21.084;2022-07-06T07:39:15;8.68;;;6.15;;
36215;SDS011;22257;52.232;21.084;2022-07-06T07:41:41;11.00;;;6.00;;
36215;SDS011;22257;52.232;21.084;2022-07-06T07:44:07;9.80;;;6.12;;
36215;SDS011;22257;52.232;21.084;2022-07-06T07:46:33;13.38;;;6.70;;
36215;SDS011;22257;52.232;21.084;2022-07-06T07:48:59;13.98;;;7.28;;
36215;SDS011;22257;52.232;21.084;2022-07-06T07:51:25;18.35;;;6.25;;
36215;SDS011;22257;52.232;21.084;2022-07-06T07:53:51;15.05;;;5.20;;
36215;SDS011;22257;52.232;21.084;2022-07-06T07:56:18;11.38;;;5.58;;
36215;SDS011;22257;52.232;21.084;2022-07-06T07:58:44;9.48;;;5.17;;
36215;SDS011;22257;52.232;21.084;2022-07-06T08:01:11;12.58;;;5.20;;
36215;SDS011;22257;52.232;21.084;2022-07-06T08:03:37;6.83;;;5.00;;
36215;SDS011;22257;52.232;21.084;2022-07-06T08:06:04;8.20;;;3.50;;
36215;SDS011;22257;52.232;21.084;2022-07-06T08:08:30;7.35;;;3.62;;
36215;SDS011;22257;52.232;21.084;2022-07-06T08:10:56;7.15;;;2.67;;
36215;SDS011;22257;52.232;21.084;2022-07-06T08:13:22;5.35;;;2.62;;
36215;SDS011;22257;52.232;21.084;2022-07-06T08:15:48;7.85;;;2.47;;
36215;SDS011;22257;52.232;21.084;2022-07-06T08:18:14;5.70;;;2.35;;
36215;SDS011;22257;52.232;21.084;2022-07-06T08:20:41;6.53;;;2.35;;
36215;SDS011;22257;52.232;21.084;2022-07-06T08:23:07;4.62;;;2.12;;
36215;SDS011;22257;52.232;21.084;2022-07-06T08:25:33;6.22;;;2.20;;
36215;SDS011;22257;52.232;21.084;2022-07-06T08:27:59;6.70;;;1.90;;
36215;SDS011;22257;52.232;21.084;2022-07-06T08:30:25;5.35;;;1.80;;
36215;SDS011;22257;52.232;21.084;2022-07-06T08:32:51;4.70;;;1.90;;
36215;SDS011;22257;52.232;21.084;2022-07-06T08:35:17;5.70;;;1.90;;
36215;SDS011;22257;52.232;21.084;2022-07-06T08:37:43;5.83;;;1.92;;
36215;SDS011;22257;52.232;21.084;2022-07-06T08:40:09;7.92;;;1.70;;
36215;SDS011;22257;52.232;21.084;2022-07-06T08:42:36;4.90;;;1.77;;
36215;SDS011;22257;52.232;21.084;2022-07-06T08:45:03;4.60;;;1.52;;
36215;SDS011;22257;52.232;21.084;2022-07-06T08:47:31;5.50;;;1.52;;
36215;SDS011;22257;52.232;21.084;2022-07-06T08:50:00;6.67;;;1.67;;
36215;SDS011;22257;52.232;21.084;2022-07-06T08:52:28;6.10;;;1.40;;
36215;SDS011;22257;52.232;21.084;2022-07-06T08:54:55;4.60;;;1.50;;
36215;SDS011;22257;52.232;21.084;2022-07-06T08:57:22;4.12;;;1.55;;
36215;SDS011;22257;52.232;21.084;2022-07-06T08:59:50;5.50;;;1.45;;
36215;SDS011;22257;52.232;21.084;2022-07-06T09:02:16;3.27;;;1.47;;
36215;SDS011;22257;52.232;21.084;2022-07-06T09:04:43;4.22;;;1.00;;
36215;SDS011;22257;52.232;21.084;2022-07-06T09:07:10;4.03;;;1.30;;
36215;SDS011;22257;52.232;21.084;2022-07-06T09:09:37;6.08;;;1.62;;
36215;SDS011;22257;52.232;21.084;2022-07-06T09:12:08;5.58;;;1.55;;
36215;SDS011;22257;52.232;21.084;2022-07-06T09:14:35;3.67;;;1.52;;
36215;SDS011;22257;52.232;21.084;2022-07-06T09:17:02;6.80;;;1.47;;
36215;SDS011;22257;52.232;21.084;2022-07-06T09:19:33;5.55;;;1.42;;
36215;SDS011;22257;52.232;21.084;2022-07-06T09:22:01;5.37;;;1.20;;
36215;SDS011;22257;52.232;21.084;2022-07-06T09:24:27;5.65;;;1.40;;
36215;SDS011;22257;52.232;21.084;2022-07-06T09:26:55;7.62;;;1.37;;
36215;SDS011;22257;52.232;21.084;2022-07-06T09:29:30;2.27;;;0.70;;
36215;SDS011;22257;52.232;21.084;2022-07-06T09:31:55;3.40;;;1.10;;
36215;SDS011;22257;52.232;21.084;2022-07-06T09:34:39;4.25;;;1.30;;
36215;SDS011;22257;52.232;21.084;2022-07-06T09:37:07;3.30;;;1.20;;
36215;SDS011;22257;52.232;21.084;2022-07-06T09:39:34;5.20;;;0.70;;
36215;SDS011;22257;52.232;21.084;2022-07-06T09:42:01;5.47;;;1.05;;
36215;SDS011;22257;52.232;21.084;2022-07-06T09:44:30;7.03;;;1.10;;
36215;SDS011;22257;52.232;21.084;2022-07-06T09:47:02;3.17;;;0.88;;
36215;SDS011;22257;52.232;21.084;2022-07-06T09:49:31;3.37;;;1.10;;
36215;SDS011;22257;52.232;21.084;2022-07-06T09:51:57;8.55;;;0.98;;
36215;SDS011;22257;52.232;21.084;2022-07-06T09:54:25;3.50;;;0.90;;
36215;SDS011;22257;52.232;21.084;2022-07-06T09:56:53;2.72;;;0.90;;
36215;SDS011;22257;52.232;21.084;2022-07-06T09:59:21;2.72;;;1.12;;
36215;SDS011;22257;52.232;21.084;2022-07-06T10:01:50;5.53;;;1.00;;
36215;SDS011;22257;52.232;21.084;2022-07-06T10:04:18;4.53;;;1.10;;
36215;SDS011;22257;52.232;21.084;2022-07-06T10:06:46;4.67;;;1.30;;
36215;SDS011;22257;52.232;21.084;2022-07-06T10:09:13;3.50;;;1.12;;
36215;SDS011;22257;52.232;21.084;2022-07-06T10:11:42;2.75;;;0.80;;
36215;SDS011;22257;52.232;21.084;2022-07-06T10:14:10;4.35;;;0.85;;
36215;SDS011;22257;52.232;21.084;2022-07-06T10:16:40;2.75;;;0.90;;
36215;SDS011;22257;52.232;21.084;2022-07-06T10:19:07;1.98;;;0.75;;
36215;SDS011;22257;52.232;21.084;2022-07-06T10:21:39;4.45;;;0.82;;
36215;SDS011;22257;52.232;21.084;2022-07-06T10:24:04;1.98;;;0.78;;
36215;SDS011;22257;52.232;21.084;2022-07-06T10:26:32;3.75;;;0.82;;
36215;SDS011;22257;52.232;21.084;2022-07-06T10:29:00;2.75;;;1.27;;
36215;SDS011;22257;52.232;21.084;2022-07-06T10:31:28;3.58;;;0.98;;
36215;SDS011;22257;52.232;21.084;2022-07-06T10:33:56;4.05;;;0.80;;
36215;SDS011;22257;52.232;21.084;2022-07-06T10:36:25;3.83;;;0.88;;
36215;SDS011;22257;52.232;21.084;2022-07-06T10:38:52;1.00;;;0.55;;
36215;SDS011;22257;52.232;21.084;2022-07-06T10:41:18;2.52;;;1.00;;
36215;SDS011;22257;52.232;21.084;2022-07-06T10:43:57;3.05;;;0.93;;
36215;SDS011;22257;52.232;21.084;2022-07-06T10:46:27;3.80;;;0.90;;
36215;SDS011;22257;52.232;21.084;2022-07-06T10:48:55;3.83;;;0.90;;
36215;SDS011;22257;52.232;21.084;2022-07-06T10:53:56;2.60;;;1.10;;
36215;SDS011;22257;52.232;21.084;2022-07-06T10:56:38;4.42;;;1.10;;
36215;SDS011;22257;52.232;21.084;2022-07-06T10:59:10;7.33;;;1.15;;
36215;SDS011;22257;52.232;21.084;2022-07-06T11:01:37;5.20;;;1.05;;
36215;SDS011;22257;52.232;21.084;2022-07-06T11:06:32;3.77;;;1.30;;
36215;SDS011;22257;52.232;21.084;2022-07-06T11:09:11;3.95;;;1.05;;
36215;SDS011;22257;52.232;21.084;2022-07-06T11:19:19;6.55;;;1.12;;
36215;SDS011;22257;52.232;21.084;2022-07-06T11:21:50;2.65;;;0.90;;
36215;SDS011;22257;52.232;21.084;2022-07-06T11:24:19;1.50;;;0.75;;
36215;SDS011;22257;52.232;21.084;2022-07-06T11:26:47;3.92;;;0.88;;
36215;SDS011;22257;52.232;21.084;2022-07-06T11:29:15;3.42;;;1.00;;
36215;SDS011;22257;52.232;21.084;2022-07-06T11:31:43;3.35;;;1.07;;
36215;SDS011;22257;52.232;21.084;2022-07-06T11:34:12;4.95;;;1.00;;
36215;SDS011;22257;52.232;21.084;2022-07-06T11:36:40;4.30;;;1.20;;
36215;SDS011;22257;52.232;21.084;2022-07-06T11:39:06;7.90;;;1.00;;
36215;SDS011;22257;52.232;21.084;2022-07-06T11:41:33;4.53;;;1.20;;
36215;SDS011;22257;52.232;21.084;2022-07-06T11:44:00;4.65;;;0.80;;
36215;SDS011;22257;52.232;21.084;2022-07-06T11:46:27;6.33;;;0.98;;
36215;SDS011;22257;52.232;21.084;2022-07-06T11:48:58;4.30;;;1.00;;
36215;SDS011;22257;52.232;21.084;2022-07-06T11:51:27;4.75;;;1.05;;
36215;SDS011;22257;52.232;21.084;2022-07-06T11:53:56;2.70;;;0.75;;
36215;SDS011;22257;52.232;21.084;2022-07-06T11:56:25;1.70;;;0.98;;
36215;SDS011;22257;52.232;21.084;2022-07-06T11:58:54;4.08;;;0.90;;
36215;SDS011;22257;52.232;21.084;2022-07-06T12:01:22;5.83;;;0.90;;
36215;SDS011;22257;52.232;21.084;2022-07-06T12:03:49;2.22;;;0.80;;
36215;SDS011;22257;52.232;21.084;2022-07-06T12:06:18;5.50;;;0.88;;
36215;SDS011;22257;52.232;21.084;2022-07-06T12:08:47;3.25;;;0.95;;
36215;SDS011;22257;52.232;21.084;2022-07-06T12:13:54;2.72;;;0.62;;
36215;SDS011;22257;52.232;21.084;2022-07-06T12:16:29;3.47;;;0.93;;
36215;SDS011;22257;52.232;21.084;2022-07-06T12:19:00;4.78;;;1.10;;
36215;SDS011;22257;52.232;21.084;2022-07-06T12:21:28;4.72;;;0.80;;
36215;SDS011;22257;52.232;21.084;2022-07-06T12:23:54;3.40;;;0.93;;
36215;SDS011;22257;52.232;21.084;2022-07-06T12:26:22;2.37;;;0.78;;
36215;SDS011;22257;52.232;21.084;2022-07-06T12:31:31;3.33;;;0.90;;
36215;SDS011;22257;52.232;21.084;2022-07-06T12:34:00;2.90;;;0.80;;
36215;SDS011;22257;52.232;21.084;2022-07-06T12:36:26;2.65;;;0.90;;
36215;SDS011;22257;52.232;21.084;2022-07-06T12:38:53;3.50;;;0.80;;
36215;SDS011;22257;52.232;21.084;2022-07-06T12:44:02;4.30;;;1.00;;
36215;SDS011;22257;52.232;21.084;2022-07-06T12:46:34;6.47;;;0.93;;
36215;SDS011;22257;52.232;21.084;2022-07-06T12:49:11;3.80;;;1.02;;
36215;SDS011;22257;52.232;21.084;2022-07-06T12:54:21;3.87;;;0.88;;
36215;SDS011;22257;52.232;21.084;2022-07-06T12:57:05;4.60;;;0.90;;
36215;SDS011;22257;52.232;21.084;2022-07-06T12:59:39;1.77;;;0.82;;
36215;SDS011;22257;52.232;21.084;2022-07-06T13:02:21;3.02;;;0.80;;
36215;SDS011;22257;52.232;21.084;2022-07-06T13:05:04;1.87;;;0.90;;
36215;SDS011;22257;52.232;21.084;2022-07-06T13:07:30;7.07;;;0.90;;
36215;SDS011;22257;52.232;21.084;2022-07-06T13:09:58;4.55;;;0.88;;
36215;SDS011;22257;52.232;21.084;2022-07-06T13:12:24;2.47;;;0.50;;
36215;SDS011;22257;52.232;21.084;2022-07-06T13:14:50;1.20;;;0.70;;
36215;SDS011;22257;52.232;21.084;2022-07-06T13:17:17;2.15;;;1.00;;
36215;SDS011;22257;52.232;21.084;2022-07-06T13:19:43;7.00;;;1.10;;
36215;SDS011;22257;52.232;21.084;2022-07-06T13:22:10;3.20;;;1.05;;
36215;SDS011;22257;52.232;21.084;2022-07-06T13:24:36;6.37;;;1.25;;
36215;SDS011;22257;52.232;21.084;2022-07-06T13:27:03;2.00;;;0.88;;
36215;SDS011;22257;52.232;21.084;2022-07-06T13:29:31;3.85;;;0.68;;
36215;SDS011;22257;52.232;21.084;2022-07-06T13:31:57;4.42;;;0.85;;
36215;SDS011;22257;52.232;21.084;2022-07-06T13:34:24;2.47;;;0.90;;
36215;SDS011;22257;52.232;21.084;2022-07-06T13:36:50;3.60;;;1.00;;
36215;SDS011;22257;52.232;21.084;2022-07-06T13:39:18;5.37;;;0.80;;
36215;SDS011;22257;52.232;21.084;2022-07-06T13:41:44;2.95;;;0.78;;
36215;SDS011;22257;52.232;21.084;2022-07-06T13:44:10;2.08;;;0.57;;
36215;SDS011;22257;52.232;21.084;2022-07-06T13:46:38;5.15;;;0.82;;
36215;SDS011;22257;52.232;21.084;2022-07-06T13:49:05;3.80;;;0.80;;
36215;SDS011;22257;52.232;21.084;2022-07-06T13:51:31;3.12;;;0.70;;
36215;SDS011;22257;52.232;21.084;2022-07-06T13:53:58;3.45;;;0.82;;
36215;SDS011;22257;52.232;21.084;2022-07-06T13:56:25;4.60;;;0.90;;
36215;SDS011;22257;52.232;21.084;2022-07-06T13:58:52;3.02;;;0.90;;
36215;SDS011;22257;52.232;21.084;2022-07-06T14:01:19;2.85;;;0.88;;
36215;SDS011;22257;52.232;21.084;2022-07-06T14:03:45;7.03;;;1.00;;
36215;SDS011;22257;52.232;21.084;2022-07-06T14:06:11;4.05;;;1.00;;
36215;SDS011;22257;52.232;21.084;2022-07-06T14:08:43;1.98;;;0.80;;
36215;SDS011;22257;52.232;21.084;2022-07-06T14:11:16;3.65;;;1.12;;
36215;SDS011;22257;52.232;21.084;2022-07-06T14:13:42;4.58;;;0.90;;
36215;SDS011;22257;52.232;21.084;2022-07-06T14:16:08;4.22;;;1.37;;
36215;SDS011;22257;52.232;21.084;2022-07-06T14:18:35;4.50;;;0.82;;
36215;SDS011;22257;52.232;21.084;2022-07-06T14:21:02;4.00;;;0.80;;
36215;SDS011;22257;52.232;21.084;2022-07-06T14:23:29;3.58;;;1.12;;
36215;SDS011;22257;52.232;21.084;2022-07-06T14:25:55;3.58;;;1.22;;
36215;SDS011;22257;52.232;21.084;2022-07-06T14:28:22;9.03;;;1.10;;
36215;SDS011;22257;52.232;21.084;2022-07-06T14:30:49;1.90;;;0.70;;
36215;SDS011;22257;52.232;21.084;2022-07-06T14:33:15;9.05;;;1.27;;
36215;SDS011;22257;52.232;21.084;2022-07-06T14:35:42;2.92;;;1.15;;
36215;SDS011;22257;52.232;21.084;2022-07-06T14:38:14;7.97;;;1.35;;
36215;SDS011;22257;52.232;21.084;2022-07-06T14:40:41;3.40;;;1.20;;
36215;SDS011;22257;52.232;21.084;2022-07-06T14:43:08;4.75;;;1.37;;
36215;SDS011;22257;52.232;21.084;2022-07-06T14:45:35;5.10;;;1.20;;
36215;SDS011;22257;52.232;21.084;2022-07-06T14:48:03;6.17;;;1.20;;
36215;SDS011;22257;52.232;21.084;2022-07-06T14:50:31;5.53;;;1.65;;
36215;SDS011;22257;52.232;21.084;2022-07-06T14:52:57;1.98;;;0.82;;
36215;SDS011;22257;52.232;21.084;2022-07-06T14:55:23;4.80;;;1.10;;
36215;SDS011;22257;52.232;21.084;2022-07-06T14:57:49;4.55;;;1.40;;